Time;durP1;ratioP1;P1;durP2;ratioP2;P2;SDS_P1;SDS_P2;PMS_P1;PMS_P2;Temp;Humidity;BMP_temperature;BMP_pressure;BME280_temperature;BME280_humidity;BME280_pressure;Samples;Min_cycle;Max_cycle;Signal;HPM_P1;HPM_P2
2022/03/19 00:00:55;;;;;;;;;;;4.40;99.90;;;;;;5084970;28;20174;-68
2022/03/19 00:03:23;;;;;;;;;;;4.40;99.90;;;;;;5084928;28;19920;-67
2022/03/19 00:05:50;;;;;;;;;;;4.40;99.90;;;;;;5083795;28;20147;-67
2022/03/19 00:08:17;;;;;;;;;;;4.40;99.90;;;;;;5084871;28;19920;-68
2022/03/19 00:10:43;;;;;;;;;;;4.30;99.90;;;;;;5083953;28;19975;-68
2022/03/19 00:13:10;;;;;;;;;;;4.20;99.90;;;;;;5084443;28;20212;-68
2022/03/19 00:15:37;;;;;;;;;;;4.30;99.90;;;;;;5089490;28;19928;-67
2022/03/19 00:18:03;;;;;;;;;;;4.30;99.90;;;;;;5098432;28;19927;-67
2022/03/19 00:20:32;;;;;;;;;;;4.30;99.90;;;;;;5084188;28;19920;-67
2022/03/19 00:22:59;;;;;;;;;;;4.30;99.90;;;;;;5083439;28;20127;-67
2022/03/19 00:25:25;;;;;;;;;;;4.30;99.90;;;;;;5083827;28;19943;-67
2022/03/19 00:27:52;;;;;;;;;;;4.30;99.90;;;;;;5096015;28;19920;-67
2022/03/19 00:30:19;;;;;;;;;;;4.30;99.90;;;;;;5101757;28;20150;-67
2022/03/19 00:32:46;;;;;;;;;;;4.20;99.90;;;;;;5087474;28;20211;-67
2022/03/19 00:35:13;;;;;;;;;;;4.20;99.90;;;;;;5096626;28;19920;-68
2022/03/19 00:37:46;;;;;;;;;;;4.20;99.90;;;;;;5083553;28;19921;-67
2022/03/19 00:40:13;;;;;;;;;;;4.20;99.90;;;;;;5085789;28;20200;-68
2022/03/19 00:42:40;;;;;;;;;;;4.20;99.90;;;;;;5083949;28;19921;-68
2022/03/19 00:45:07;;;;;;;;;;;4.10;99.90;;;;;;5082523;28;19924;-68
2022/03/19 00:47:34;;;;;;;;;;;4.10;99.90;;;;;;5083360;28;20147;-68
2022/03/19 00:50:01;;;;;;;;;;;4.10;99.90;;;;;;5083230;28;19928;-68
2022/03/19 00:52:27;;;;;;;;;;;4.10;99.90;;;;;;5079683;28;20097;-67
2022/03/19 00:54:55;;;;;;;;;;;4.10;99.90;;;;;;5083242;28;20282;-68
2022/03/19 00:57:24;;;;;;;;;;;4.00;99.90;;;;;;5081127;28;19927;-68
2022/03/19 00:59:51;;;;;;;;;;;4.00;99.90;;;;;;5083920;28;20147;-67
2022/03/19 01:02:17;;;;;;;;;;;4.00;99.90;;;;;;5084281;28;20043;-67
2022/03/19 01:04:44;;;;;;;;;;;4.00;99.90;;;;;;5083317;28;20223;-67
2022/03/19 01:07:10;;;;;;;;;;;4.00;99.90;;;;;;5082739;28;19928;-68
2022/03/19 01:09:37;;;;;;;;;;;4.00;99.90;;;;;;5099495;28;19955;-68
2022/03/19 01:12:05;;;;;;;;;;;4.00;99.90;;;;;;5096102;28;20110;-67
2022/03/19 01:20:38;;;;;;;;;;;3.90;99.90;;;;;;5083916;28;19942;-68
2022/03/19 01:23:04;;;;;;;;;;;3.90;99.90;;;;;;5082774;28;19920;-67
2022/03/19 01:25:32;;;;;;;;;;;3.90;99.90;;;;;;5084135;28;19936;-68
2022/03/19 01:28:00;;;;;;;;;;;3.90;99.90;;;;;;5083289;28;19921;-67
2022/03/19 01:30:26;;;;;;;;;;;3.80;99.90;;;;;;5082726;28;19920;-67
2022/03/19 01:32:53;;;;;;;;;;;3.80;99.90;;;;;;5083016;28;19933;-68
2022/03/19 01:35:20;;;;;;;;;;;3.80;99.90;;;;;;5110995;22;19968;-69
2022/03/19 01:37:47;;;;;;;;;;;3.80;99.90;;;;;;5152758;27;20118;-69
2022/03/19 01:40:16;;;;;;;;;;;3.80;99.90;;;;;;5157176;27;20128;-69
2022/03/19 01:42:43;;;;;;;;;;;3.80;99.90;;;;;;5164705;27;19931;-69
2022/03/19 01:45:12;;;;;;;;;;;3.70;99.90;;;;;;5164650;27;19945;-69
2022/03/19 01:47:38;;;;;;;;;;;3.70;99.90;;;;;;5164723;27;19919;-69
2022/03/19 01:50:05;;;;;;;;;;;3.60;99.90;;;;;;5163510;27;20134;-70
2022/03/19 01:52:32;;;;;;;;;;;3.60;99.90;;;;;;5163308;27;19925;-70
2022/03/19 01:54:59;;;;;;;;;;;3.60;99.90;;;;;;5153302;27;19927;-69
2022/03/19 01:57:38;;;;;;;;;;;3.60;99.90;;;;;;5161372;27;19927;-68
2022/03/19 02:00:06;;;;;;;;;;;3.60;99.90;;;;;;5157051;27;19920;-69
2022/03/19 02:02:34;;;;;;;;;;;3.60;99.90;;;;;;5154779;27;20210;-69
2022/03/19 02:05:04;;;;;;;;;;;3.50;99.90;;;;;;5144056;27;19920;-69
2022/03/19 02:07:31;;;;;;;;;;;3.50;99.90;;;;;;5157188;27;19927;-69
2022/03/19 02:10:24;;;;;;;;;;;3.50;99.90;;;;;;5157589;27;19935;-69
2022/03/19 02:12:55;;;;;;;;;;;3.50;99.90;;;;;;5152055;27;20006;-69
2022/03/19 02:15:22;;;;;;;;;;;3.50;99.90;;;;;;5143698;28;19932;-69
2022/03/19 02:17:50;;;;;;;;;;;3.50;99.90;;;;;;5147585;27;19946;-69
2022/03/19 02:20:18;;;;;;;;;;;3.50;99.90;;;;;;5162499;27;20210;-69
2022/03/19 02:25:34;;;;;;;;;;;3.40;99.90;;;;;;5155930;27;20233;-70
2022/03/19 02:25:35;;;;;;;;;;;3.40;99.90;;;;;;5162260;27;19919;-69
2022/03/19 02:28:01;;;;;;;;;;;3.40;99.90;;;;;;5164650;27;19978;-69
2022/03/19 02:30:28;;;;;;;;;;;3.40;99.90;;;;;;5158547;27;19919;-69
2022/03/19 02:32:54;;;;;;;;;;;3.30;99.90;;;;;;5152815;27;20211;-70
2022/03/19 02:35:21;;;;;;;;;;;3.30;99.90;;;;;;5142909;27;20226;-69
2022/03/19 02:37:48;;;;;;;;;;;3.30;99.90;;;;;;5150457;27;19943;-69
2022/03/19 02:40:16;;;;;;;;;;;3.30;99.90;;;;;;5144819;27;19926;-70
2022/03/19 02:42:44;;;;;;;;;;;3.30;99.90;;;;;;5153313;27;20010;-69
2022/03/19 02:45:10;;;;;;;;;;;3.30;99.90;;;;;;5164477;27;19919;-69
2022/03/19 02:47:56;;;;;;;;;;;3.30;99.90;;;;;;5167350;27;20199;-70
2022/03/19 02:50:24;;;;;;;;;;;3.30;99.90;;;;;;5157070;27;19964;-70
2022/03/19 02:52:51;;;;;;;;;;;3.30;99.90;;;;;;5157695;27;19919;-69
2022/03/19 02:55:18;;;;;;;;;;;3.30;99.90;;;;;;5167319;27;19925;-70
2022/03/19 02:57:45;;;;;;;;;;;3.20;99.90;;;;;;5168330;27;19919;-69
2022/03/19 03:00:12;;;;;;;;;;;3.10;99.90;;;;;;5167377;27;19942;-69
2022/03/19 03:02:39;;;;;;;;;;;3.10;99.90;;;;;;5166889;27;19937;-69
2022/03/19 03:05:06;;;;;;;;;;;3.10;99.90;;;;;;5161227;27;19923;-69
2022/03/19 03:07:33;;;;;;;;;;;3.00;99.90;;;;;;5158055;27;19919;-69
2022/03/19 03:10:00;;;;;;;;;;;3.00;99.90;;;;;;5154313;27;19926;-69
2022/03/19 03:12:27;;;;;;;;;;;3.00;99.90;;;;;;5160938;27;20256;-69
2022/03/19 03:14:55;;;;;;;;;;;2.90;99.90;;;;;;5167806;27;19919;-68
2022/03/19 03:17:22;;;;;;;;;;;2.90;99.90;;;;;;5166842;27;19919;-70
2022/03/19 03:19:48;;;;;;;;;;;2.90;99.90;;;;;;5172130;27;19923;-69
2022/03/19 03:22:15;;;;;;;;;;;2.90;99.90;;;;;;5173711;27;19931;-69
2022/03/19 03:24:41;;;;;;;;;;;2.90;99.90;;;;;;5166897;27;20202;-68
2022/03/19 03:27:08;;;;;;;;;;;2.90;99.90;;;;;;5167001;27;19919;-69
2022/03/19 03:29:35;;;;;;;;;;;2.80;99.90;;;;;;5166310;27;19919;-70
2022/03/19 03:32:03;;;;;;;;;;;2.90;99.90;;;;;;5167196;27;19925;-69
2022/03/19 03:34:29;;;;;;;;;;;2.80;99.90;;;;;;5167221;27;19954;-69
2022/03/19 03:36:56;;;;;;;;;;;2.80;99.90;;;;;;5166400;27;19925;-69
2022/03/19 03:39:23;;;;;;;;;;;2.90;99.90;;;;;;5166057;27;20207;-69
2022/03/19 03:41:49;;;;;;;;;;;2.80;99.90;;;;;;5165706;27;19919;-69
2022/03/19 03:44:16;;;;;;;;;;;2.80;99.90;;;;;;5164480;27;19919;-69
2022/03/19 03:46:42;;;;;;;;;;;2.70;99.90;;;;;;5165367;27;19927;-69
2022/03/19 03:49:10;;;;;;;;;;;2.70;99.90;;;;;;5165392;27;19925;-70
2022/03/19 03:51:38;;;;;;;;;;;2.60;99.90;;;;;;5165392;27;19990;-70
2022/03/19 03:54:05;;;;;;;;;;;2.60;99.90;;;;;;5164934;27;19927;-69
2022/03/19 03:56:32;;;;;;;;;;;2.60;99.90;;;;;;5162030;27;19926;-69
2022/03/19 03:58:58;;;;;;;;;;;2.70;99.90;;;;;;5145794;27;19920;-69
2022/03/19 04:04:29;;;;;;;;;;;2.70;99.90;;;;;;5161183;27;19956;-69
2022/03/19 04:06:56;;;;;;;;;;;2.60;99.90;;;;;;5162245;27;19919;-69
2022/03/19 04:09:22;;;;;;;;;;;2.60;99.90;;;;;;5166451;27;19926;-69
2022/03/19 04:11:49;;;;;;;;;;;2.60;99.90;;;;;;5163707;27;19919;-69
2022/03/19 04:14:15;;;;;;;;;;;2.50;99.90;;;;;;5163038;27;20114;-70
2022/03/19 04:16:42;;;;;;;;;;;2.50;99.90;;;;;;5159425;27;19919;-69
2022/03/19 04:19:08;;;;;;;;;;;2.50;99.90;;;;;;5166354;27;19919;-69
2022/03/19 04:21:36;;;;;;;;;;;2.50;99.90;;;;;;5159799;27;19919;-69
2022/03/19 04:24:03;;;;;;;;;;;2.50;99.90;;;;;;5162804;27;19926;-69
2022/03/19 04:26:30;;;;;;;;;;;2.40;99.90;;;;;;5158181;27;19920;-70
2022/03/19 04:28:56;;;;;;;;;;;2.30;99.90;;;;;;5159271;27;19926;-69
2022/03/19 04:31:23;;;;;;;;;;;2.30;99.90;;;;;;5153300;27;19919;-69
2022/03/19 04:33:49;;;;;;;;;;;2.30;99.90;;;;;;5156954;27;20206;-69
2022/03/19 04:36:30;;;;;;;;;;;2.40;99.90;;;;;;5164782;27;19925;-69
2022/03/19 04:38:58;;;;;;;;;;;2.30;99.90;;;;;;5165510;27;19974;-69
2022/03/19 04:41:24;;;;;;;;;;;2.30;99.90;;;;;;5151761;27;19925;-69
2022/03/19 04:43:51;;;;;;;;;;;2.20;99.90;;;;;;5145801;27;19919;-69
2022/03/19 04:46:18;;;;;;;;;;;2.20;99.90;;;;;;5160117;27;20255;-69
2022/03/19 04:48:45;;;;;;;;;;;2.20;99.90;;;;;;5159965;27;20110;-70
2022/03/19 04:51:13;;;;;;;;;;;2.20;99.90;;;;;;5165430;27;20309;-69
2022/03/19 04:53:39;;;;;;;;;;;2.20;99.90;;;;;;5158582;27;20123;-69
2022/03/19 04:56:07;;;;;;;;;;;2.10;99.90;;;;;;5163832;27;19918;-69
2022/03/19 04:58:34;;;;;;;;;;;2.10;99.90;;;;;;5147304;27;19926;-69
2022/03/19 05:01:01;;;;;;;;;;;2.20;99.90;;;;;;5148839;27;19919;-69
2022/03/19 05:03:27;;;;;;;;;;;2.20;99.90;;;;;;5156366;27;19953;-69
2022/03/19 05:05:55;;;;;;;;;;;2.20;99.90;;;;;;5162928;27;19925;-69
2022/03/19 05:08:21;;;;;;;;;;;2.10;99.90;;;;;;5150285;27;20111;-69
2022/03/19 05:13:33;;;;;;;;;;;2.10;99.90;;;;;;5153088;27;19942;-69
2022/03/19 05:16:00;;;;;;;;;;;2.10;99.90;;;;;;5159709;27;19919;-69
2022/03/19 05:18:27;;;;;;;;;;;2.20;99.90;;;;;;5165207;27;19923;-69
2022/03/19 05:20:54;;;;;;;;;;;2.20;99.90;;;;;;5159157;27;19920;-70
2022/03/19 05:23:20;;;;;;;;;;;2.30;99.90;;;;;;5163547;27;20222;-69
2022/03/19 05:25:47;;;;;;;;;;;2.40;99.90;;;;;;5164603;27;19919;-69
2022/03/19 05:28:13;;;;;;;;;;;2.40;99.90;;;;;;5164653;27;19926;-70
2022/03/19 05:30:41;;;;;;;;;;;2.40;99.90;;;;;;5147160;27;19927;-69
2022/03/19 05:33:08;;;;;;;;;;;2.50;99.90;;;;;;5150075;27;19923;-69
2022/03/19 05:35:34;;;;;;;;;;;2.50;99.90;;;;;;5156304;27;19919;-69
2022/03/19 05:38:01;;;;;;;;;;;2.50;99.90;;;;;;5151598;27;19927;-69
2022/03/19 05:40:28;;;;;;;;;;;2.40;99.90;;;;;;5165271;27;19926;-69
2022/03/19 05:42:55;;;;;;;;;;;2.50;99.90;;;;;;5162799;27;19919;-69
2022/03/19 05:45:22;;;;;;;;;;;2.50;99.90;;;;;;5163835;27;19979;-70
2022/03/19 05:47:50;;;;;;;;;;;2.60;99.90;;;;;;5164961;27;19941;-69
2022/03/19 05:50:17;;;;;;;;;;;2.60;99.90;;;;;;5157029;27;19920;-69
2022/03/19 05:52:45;;;;;;;;;;;2.60;99.90;;;;;;5164194;27;19919;-69
2022/03/19 05:55:12;;;;;;;;;;;2.60;99.90;;;;;;5163954;27;19960;-69
2022/03/19 05:57:40;;;;;;;;;;;2.60;99.90;;;;;;5150972;27;19919;-70
2022/03/19 06:00:08;;;;;;;;;;;2.60;99.90;;;;;;5144186;27;19920;-70
2022/03/19 06:02:38;;;;;;;;;;;2.70;99.90;;;;;;5150871;27;19926;-69
2022/03/19 06:05:06;;;;;;;;;;;2.70;99.90;;;;;;5162627;27;20273;-70
2022/03/19 06:07:33;;;;;;;;;;;2.60;99.90;;;;;;5154629;27;19949;-70
2022/03/19 06:10:00;;;;;;;;;;;2.70;99.90;;;;;;5165018;27;20087;-69
2022/03/19 06:12:26;;;;;;;;;;;2.70;99.90;;;;;;5155814;27;19927;-69
2022/03/19 06:14:54;;;;;;;;;;;2.70;99.90;;;;;;5158768;27;19926;-70
2022/03/19 06:17:20;;;;;;;;;;;2.70;99.90;;;;;;5149466;27;19978;-69
2022/03/19 06:19:47;;;;;;;;;;;2.80;99.90;;;;;;5154438;27;20092;-69
2022/03/19 06:22:15;;;;;;;;;;;2.80;99.90;;;;;;5147742;27;19926;-69
2022/03/19 06:24:42;;;;;;;;;;;2.90;99.90;;;;;;5156746;27;19919;-69
2022/03/19 06:27:08;;;;;;;;;;;2.90;99.90;;;;;;5167973;27;19941;-69
2022/03/19 06:29:35;;;;;;;;;;;2.90;99.90;;;;;;5168797;27;19955;-70
2022/03/19 06:32:01;;;;;;;;;;;3.00;99.90;;;;;;5158915;27;20115;-69
2022/03/19 06:34:30;;;;;;;;;;;3.00;99.90;;;;;;5165337;27;20198;-69
2022/03/19 06:39:43;;;;;;;;;;;3.00;99.90;;;;;;5148036;27;20221;-69
2022/03/19 06:42:09;;;;;;;;;;;3.10;99.90;;;;;;5153410;27;19920;-69
2022/03/19 06:44:38;;;;;;;;;;;3.10;99.90;;;;;;5156477;27;19927;-69
2022/03/19 06:47:05;;;;;;;;;;;3.20;99.90;;;;;;5166687;27;19986;-69
2022/03/19 06:49:32;;;;;;;;;;;3.20;99.90;;;;;;5168302;27;19923;-69
2022/03/19 06:51:59;;;;;;;;;;;3.30;99.90;;;;;;5152148;27;20096;-69
2022/03/19 06:54:25;;;;;;;;;;;3.30;99.90;;;;;;5152436;27;19941;-69
2022/03/19 06:56:54;;;;;;;;;;;3.30;99.90;;;;;;5158863;27;19919;-69
2022/03/19 06:59:21;;;;;;;;;;;3.40;99.90;;;;;;5144639;27;19947;-69
2022/03/19 07:01:47;;;;;;;;;;;3.40;99.90;;;;;;5158754;27;19926;-69
2022/03/19 07:04:14;;;;;;;;;;;3.40;99.90;;;;;;5152134;27;19919;-69
2022/03/19 07:06:40;;;;;;;;;;;3.50;99.90;;;;;;5162757;27;19954;-69
2022/03/19 07:09:07;;;;;;;;;;;3.40;99.90;;;;;;5147138;27;19919;-69
2022/03/19 07:11:35;;;;;;;;;;;3.50;99.90;;;;;;5147085;27;19919;-69
2022/03/19 07:14:08;;;;;;;;;;;3.50;99.90;;;;;;5164937;27;19982;-69
2022/03/19 07:16:35;;;;;;;;;;;3.60;99.90;;;;;;5152648;27;19922;-69
2022/03/19 07:19:02;;;;;;;;;;;3.60;99.90;;;;;;5165397;27;19926;-69
2022/03/19 07:21:28;;;;;;;;;;;3.60;99.90;;;;;;5167298;27;19919;-70
2022/03/19 07:23:57;;;;;;;;;;;3.60;99.90;;;;;;5157821;27;20185;-69
2022/03/19 07:26:23;;;;;;;;;;;3.70;99.90;;;;;;5162306;27;19919;-69
2022/03/19 07:28:50;;;;;;;;;;;3.80;99.90;;;;;;5167650;27;19923;-69
2022/03/19 07:31:18;;;;;;;;;;;3.80;99.90;;;;;;5164139;27;19931;-70
2022/03/19 07:33:47;;;;;;;;;;;3.80;99.90;;;;;;5157807;27;19919;-69
2022/03/19 07:36:13;;;;;;;;;;;3.90;99.90;;;;;;5145568;22;20115;-67
2022/03/19 07:38:40;;;;;;;;;;;3.90;99.90;;;;;;5089115;28;19928;-67
2022/03/19 07:43:51;;;;;;;;;;;4.00;99.90;;;;;;5105560;28;20228;-68
2022/03/19 07:46:20;;;;;;;;;;;4.10;99.90;;;;;;5101731;28;20003;-68
2022/03/19 07:48:47;;;;;;;;;;;4.20;99.90;;;;;;5115541;28;19926;-68
2022/03/19 07:51:14;;;;;;;;;;;4.30;99.90;;;;;;5105130;28;19926;-68
2022/03/19 07:53:40;;;;;;;;;;;4.40;99.90;;;;;;5099225;28;19919;-67
2022/03/19 07:56:07;;;;;;;;;;;4.40;99.90;;;;;;5103014;28;19958;-68
2022/03/19 07:58:35;;;;;;;;;;;4.50;99.90;;;;;;5099623;28;19927;-68
2022/03/19 08:01:01;;;;;;;;;;;4.60;99.90;;;;;;5114008;28;20226;-68
2022/03/19 08:03:29;;;;;;;;;;;4.70;99.90;;;;;;5097775;28;20138;-68
2022/03/19 08:05:56;;;;;;;;;;;4.70;99.90;;;;;;5097877;28;19931;-68
2022/03/19 08:08:22;;;;;;;;;;;4.80;99.90;;;;;;5122707;28;19923;-68
2022/03/19 08:10:49;;;;;;;;;;;4.90;99.90;;;;;;5100160;28;19920;-69
2022/03/19 08:13:15;;;;;;;;;;;4.90;99.90;;;;;;5109253;28;19927;-67
2022/03/19 08:15:42;;;;;;;;;;;5.00;99.90;;;;;;5098305;28;19920;-68
2022/03/19 08:18:10;;;;;;;;;;;5.10;99.90;;;;;;5104535;28;19928;-68
2022/03/19 08:20:39;;;;;;;;;;;5.10;99.90;;;;;;5105368;28;19943;-67
2022/03/19 08:23:05;;;;;;;;;;;5.20;99.90;;;;;;5090652;28;19942;-67
2022/03/19 08:25:32;;;;;;;;;;;5.30;99.90;;;;;;5123917;28;19926;-67
2022/03/19 08:27:59;;;;;;;;;;;5.30;99.90;;;;;;5115053;28;19920;-68
2022/03/19 08:30:26;;;;;;;;;;;5.40;99.90;;;;;;5103698;28;19967;-67
2022/03/19 08:32:53;;;;;;;;;;;5.50;99.90;;;;;;5103317;28;19966;-68
2022/03/19 08:35:19;;;;;;;;;;;5.50;99.90;;;;;;5098810;28;20003;-68
2022/03/19 08:37:47;;;;;;;;;;;5.60;99.90;;;;;;5098181;28;19924;-68
2022/03/19 08:40:16;;;;;;;;;;;5.60;99.90;;;;;;5103483;28;20195;-67
2022/03/19 08:42:51;;;;;;;;;;;5.70;99.90;;;;;;5103668;28;19916;-68
2022/03/19 08:45:18;;;;;;;;;;;5.70;99.90;;;;;;5101459;28;19927;-69
2022/03/19 08:47:45;;;;;;;;;;;5.80;99.90;;;;;;5105653;28;19920;-68
2022/03/19 08:50:11;;;;;;;;;;;5.90;99.90;;;;;;5104492;28;19920;-68
2022/03/19 08:52:38;;;;;;;;;;;5.90;99.90;;;;;;5103815;28;19927;-67
2022/03/19 08:55:07;;;;;;;;;;;6.00;99.90;;;;;;5103945;28;19920;-68
2022/03/19 08:57:33;;;;;;;;;;;6.10;99.90;;;;;;5101843;28;19927;-68
2022/03/19 09:00:01;;;;;;;;;;;6.20;99.90;;;;;;5100962;28;19920;-67
2022/03/19 09:02:27;;;;;;;;;;;6.30;99.90;;;;;;5102990;28;19947;-68
2022/03/19 09:04:54;;;;;;;;;;;6.40;99.90;;;;;;5103059;28;19943;-67
2022/03/19 09:07:20;;;;;;;;;;;6.40;99.90;;;;;;5102407;28;19981;-68
2022/03/19 09:09:52;;;;;;;;;;;6.50;99.90;;;;;;5113174;28;19920;-67
2022/03/19 09:12:22;;;;;;;;;;;6.70;99.90;;;;;;5113210;28;19928;-67
2022/03/19 09:14:49;;;;;;;;;;;6.70;99.90;;;;;;5103945;28;19958;-67
2022/03/19 09:17:15;;;;;;;;;;;6.70;99.90;;;;;;5103592;28;19920;-67
2022/03/19 09:19:42;;;;;;;;;;;6.80;99.90;;;;;;5109836;28;19923;-68
2022/03/19 09:22:09;;;;;;;;;;;6.80;99.90;;;;;;5115708;28;19920;-68
2022/03/19 09:24:35;;;;;;;;;;;6.90;99.90;;;;;;5103644;28;19985;-67
2022/03/19 09:27:05;;;;;;;;;;;6.90;99.90;;;;;;5101781;28;19920;-68
2022/03/19 09:29:33;;;;;;;;;;;7.00;99.90;;;;;;5082624;28;19927;-68
2022/03/19 09:32:00;;;;;;;;;;;7.00;99.90;;;;;;5083623;28;20131;-68
2022/03/19 09:34:27;;;;;;;;;;;7.10;99.90;;;;;;5100487;28;19955;-68
2022/03/19 09:36:53;;;;;;;;;;;7.20;99.90;;;;;;5123507;28;19920;-68
2022/03/19 09:39:20;;;;;;;;;;;7.30;99.90;;;;;;5124023;28;20118;-68
2022/03/19 09:41:47;;;;;;;;;;;7.30;99.90;;;;;;5098121;28;20150;-68
2022/03/19 09:44:16;;;;;;;;;;;7.40;99.90;;;;;;5103442;28;19927;-68
2022/03/19 09:46:46;;;;;;;;;;;7.30;99.90;;;;;;5102214;28;20278;-67
2022/03/19 09:49:13;;;;;;;;;;;7.30;99.90;;;;;;5104233;28;19920;-69
2022/03/19 09:51:44;;;;;;;;;;;7.30;99.90;;;;;;5098293;28;19927;-68
2022/03/19 09:54:11;;;;;;;;;;;7.30;99.90;;;;;;5098331;28;19954;-68
2022/03/19 09:56:43;;;;;;;;;;;7.20;99.90;;;;;;5102564;28;20226;-68
2022/03/19 09:59:10;;;;;;;;;;;7.20;99.90;;;;;;5126395;28;19942;-68
2022/03/19 10:01:37;;;;;;;;;;;7.20;99.90;;;;;;5128310;28;19926;-68
2022/03/19 10:04:07;;;;;;;;;;;7.40;99.90;;;;;;5117847;28;19926;-68
2022/03/19 10:09:19;;;;;;;;;;;7.80;99.90;;;;;;5107630;28;20030;-67
2022/03/19 10:11:48;;;;;;;;;;;8.10;99.90;;;;;;5107725;28;19931;-67
2022/03/19 10:14:19;;;;;;;;;;;8.20;99.90;;;;;;5107581;28;19928;-67
2022/03/19 10:16:49;;;;;;;;;;;8.50;99.90;;;;;;5110679;28;19942;-67
2022/03/19 10:19:17;;;;;;;;;;;8.60;99.90;;;;;;5107464;28;19927;-70
2022/03/19 10:21:45;;;;;;;;;;;8.50;99.90;;;;;;5109386;28;19920;-67
2022/03/19 10:24:20;;;;;;;;;;;8.40;99.90;;;;;;5107008;28;19963;-67
2022/03/19 10:26:48;;;;;;;;;;;8.30;99.90;;;;;;5109263;28;19931;-66
2022/03/19 10:29:17;;;;;;;;;;;8.20;99.90;;;;;;5127877;28;20111;-67
2022/03/19 10:31:46;;;;;;;;;;;8.20;99.90;;;;;;5125498;28;19923;-67
2022/03/19 10:34:14;;;;;;;;;;;8.10;99.90;;;;;;5122871;28;19959;-68
2022/03/19 10:36:42;;;;;;;;;;;8.10;99.90;;;;;;5126360;28;19927;-67
2022/03/19 10:39:12;;;;;;;;;;;8.10;99.90;;;;;;5118812;28;19920;-67
2022/03/19 10:41:39;;;;;;;;;;;8.20;99.90;;;;;;5093761;28;19920;-68
2022/03/19 10:44:12;;;;;;;;;;;8.20;99.90;;;;;;5098351;28;19920;-68
2022/03/19 10:46:39;;;;;;;;;;;8.30;99.90;;;;;;5086554;28;19926;-67
2022/03/19 10:49:11;;;;;;;;;;;8.40;99.90;;;;;;5090582;28;19983;-67
2022/03/19 10:51:40;;;;;;;;;;;8.60;99.90;;;;;;5108047;28;19920;-68
2022/03/19 10:54:08;;;;;;;;;;;8.70;99.90;;;;;;5105905;28;19926;-68
2022/03/19 10:56:35;;;;;;;;;;;9.00;99.90;;;;;;5115677;28;20168;-68
2022/03/19 10:59:02;;;;;;;;;;;9.10;99.90;;;;;;5110325;28;19947;-68
2022/03/19 11:01:29;;;;;;;;;;;9.30;99.90;;;;;;5107571;28;19920;-67
2022/03/19 11:03:56;;;;;;;;;;;9.40;99.90;;;;;;5126257;28;19926;-68
2022/03/19 11:06:24;;;;;;;;;;;9.70;99.90;;;;;;5125916;28;19920;-69
2022/03/19 11:08:51;;;;;;;;;;;9.90;99.90;;;;;;5126237;28;19920;-68
2022/03/19 11:11:23;;;;;;;;;;;10.00;99.90;;;;;;5126739;28;20005;-68
2022/03/19 11:13:50;;;;;;;;;;;10.00;99.90;;;;;;5115799;28;20152;-67
2022/03/19 11:16:18;;;;;;;;;;;10.10;99.90;;;;;;5087405;28;19920;-68
2022/03/19 11:18:46;;;;;;;;;;;10.30;99.90;;;;;;5085643;28;19928;-67
2022/03/19 11:21:14;;;;;;;;;;;10.50;99.90;;;;;;5089677;28;19920;-68
2022/03/19 11:23:46;;;;;;;;;;;10.40;99.90;;;;;;5085989;28;19921;-67
2022/03/19 11:26:14;;;;;;;;;;;10.10;99.90;;;;;;5108373;28;19926;-67
2022/03/19 11:28:42;;;;;;;;;;;9.70;99.90;;;;;;5126496;28;19941;-68
2022/03/19 11:31:09;;;;;;;;;;;9.40;99.90;;;;;;5122894;28;20114;-68
2022/03/19 11:33:36;;;;;;;;;;;9.40;99.90;;;;;;5102630;28;19935;-69
2022/03/19 11:36:04;;;;;;;;;;;9.50;99.90;;;;;;5105412;28;19920;-67
2022/03/19 11:38:31;;;;;;;;;;;9.60;99.90;;;;;;5105922;28;19921;-68
2022/03/19 11:41:00;;;;;;;;;;;9.70;99.90;;;;;;5106230;28;19920;-68
2022/03/19 11:43:31;;;;;;;;;;;9.90;99.90;;;;;;5096863;28;20001;-68
2022/03/19 11:46:00;;;;;;;;;;;10.00;99.90;;;;;;5118786;28;20127;-67
2022/03/19 11:48:42;;;;;;;;;;;10.30;99.90;;;;;;5104766;28;19927;-68
2022/03/19 11:51:31;;;;;;;;;;;10.30;99.90;;;;;;5125155;28;20106;-69
2022/03/19 11:53:59;;;;;;;;;;;10.50;99.90;;;;;;5120100;28;19920;-68
2022/03/19 11:56:26;;;;;;;;;;;10.70;99.90;;;;;;5111679;28;19926;-67
2022/03/19 11:58:53;;;;;;;;;;;10.60;99.90;;;;;;5105239;28;19920;-68
2022/03/19 12:01:44;;;;;;;;;;;10.30;99.90;;;;;;5110251;28;19920;-67
2022/03/19 12:04:11;;;;;;;;;;;10.10;99.90;;;;;;5117612;28;19927;-68
2022/03/19 12:06:39;;;;;;;;;;;10.30;99.90;;;;;;5106425;28;19920;-68
2022/03/19 12:09:06;;;;;;;;;;;10.40;99.90;;;;;;5105117;28;20115;-68
2022/03/19 12:11:33;;;;;;;;;;;10.40;99.90;;;;;;5105508;28;19920;-69
2022/03/19 12:14:00;;;;;;;;;;;10.50;99.90;;;;;;5105216;28;19926;-68
2022/03/19 12:16:41;;;;;;;;;;;10.40;99.90;;;;;;5104444;28;19920;-68
2022/03/19 12:19:08;;;;;;;;;;;10.30;99.90;;;;;;5105076;28;19919;-67
2022/03/19 12:21:35;;;;;;;;;;;10.40;99.90;;;;;;5092403;28;20290;-69
2022/03/19 12:24:17;;;;;;;;;;;10.70;99.90;;;;;;5105033;28;19920;-67
2022/03/19 12:26:45;;;;;;;;;;;10.50;99.90;;;;;;5084187;28;19920;-68
2022/03/19 12:29:12;;;;;;;;;;;10.20;99.90;;;;;;5093304;28;19920;-69
2022/03/19 12:31:44;;;;;;;;;;;10.20;99.90;;;;;;5105676;28;19920;-69
2022/03/19 12:34:14;;;;;;;;;;;10.20;99.90;;;;;;5122500;28;19927;-68
2022/03/19 12:36:41;;;;;;;;;;;10.30;99.90;;;;;;5118907;28;19989;-68
2022/03/19 12:39:08;;;;;;;;;;;10.20;99.90;;;;;;5104678;28;19920;-72
2022/03/19 12:41:34;;;;;;;;;;;10.20;99.90;;;;;;5115224;28;19926;-68
2022/03/19 12:44:02;;;;;;;;;;;10.20;99.90;;;;;;5111092;28;19987;-67
2022/03/19 12:46:29;;;;;;;;;;;10.40;99.90;;;;;;5103107;28;19927;-68
2022/03/19 12:49:05;;;;;;;;;;;10.60;99.90;;;;;;5097953;28;19920;-68
2022/03/19 12:51:31;;;;;;;;;;;10.70;99.90;;;;;;5103889;28;19935;-69
2022/03/19 12:53:58;;;;;;;;;;;10.60;99.90;;;;;;5110496;28;19923;-69
2022/03/19 12:56:26;;;;;;;;;;;10.90;99.90;;;;;;5104058;28;20222;-69
2022/03/19 12:58:54;;;;;;;;;;;11.10;99.90;;;;;;5098614;28;19920;-70
2022/03/19 13:01:22;;;;;;;;;;;11.10;99.40;;;;;;5091510;28;19943;-70
2022/03/19 13:03:52;;;;;;;;;;;10.50;99.80;;;;;;5117660;28;19932;-69
2022/03/19 13:06:28;;;;;;;;;;;10.00;99.90;;;;;;5113621;28;19919;-69
2022/03/19 13:08:55;;;;;;;;;;;9.50;99.90;;;;;;5096860;28;20088;-68
2022/03/19 13:11:22;;;;;;;;;;;8.60;99.90;;;;;;5117895;28;19991;-69
2022/03/19 13:13:49;;;;;;;;;;;7.90;99.90;;;;;;5113237;28;19920;-68
2022/03/19 13:16:26;;;;;;;;;;;7.20;99.90;;;;;;5105991;28;19927;-69
2022/03/19 13:18:57;;;;;;;;;;;6.60;99.90;;;;;;5118790;28;19927;-68
2022/03/19 13:21:24;;;;;;;;;;;6.00;99.90;;;;;;5095318;28;19920;-68
2022/03/19 13:23:52;;;;;;;;;;;5.50;99.90;;;;;;5113590;28;20203;-68
2022/03/19 13:26:21;;;;;;;;;;;5.40;99.90;;;;;;5101543;28;19921;-67
2022/03/19 13:29:08;;;;;;;;;;;5.20;99.90;;;;;;5087403;28;20569;-67
2022/03/19 13:31:36;;;;;;;;;;;5.00;99.90;;;;;;5100046;28;19942;-69
2022/03/19 13:34:04;;;;;;;;;;;5.00;99.90;;;;;;5114460;28;19991;-69
2022/03/19 13:36:33;;;;;;;;;;;4.80;99.90;;;;;;5110624;28;19920;-68
2022/03/19 13:39:01;;;;;;;;;;;4.70;99.90;;;;;;5103830;28;19936;-69
2022/03/19 13:41:28;;;;;;;;;;;4.50;99.90;;;;;;5093191;28;19920;-69
2022/03/19 13:43:54;;;;;;;;;;;4.20;99.90;;;;;;5096681;28;20230;-72
2022/03/19 13:46:22;;;;;;;;;;;4.20;99.90;;;;;;5104012;28;19920;-69
2022/03/19 13:48:49;;;;;;;;;;;4.10;99.90;;;;;;5109732;28;19920;-70
2022/03/19 13:51:16;;;;;;;;;;;4.10;99.90;;;;;;5103957;28;19920;-69
2022/03/19 13:53:44;;;;;;;;;;;4.00;99.90;;;;;;5114777;28;19920;-69
2022/03/19 13:56:12;;;;;;;;;;;4.00;99.90;;;;;;5118515;28;19987;-69
2022/03/19 13:58:39;;;;;;;;;;;4.00;99.90;;;;;;5104900;28;20120;-69
2022/03/19 14:01:12;;;;;;;;;;;4.10;99.90;;;;;;5124217;28;20240;-69
2022/03/19 14:03:40;;;;;;;;;;;4.10;99.90;;;;;;5120132;28;19920;-69
2022/03/19 14:06:07;;;;;;;;;;;4.20;99.90;;;;;;5116196;28;19926;-69
2022/03/19 14:08:36;;;;;;;;;;;4.20;99.90;;;;;;5113391;28;19920;-68
2022/03/19 14:11:10;;;;;;;;;;;4.20;99.90;;;;;;5123780;28;19942;-69
2022/03/19 14:13:41;;;;;;;;;;;4.30;99.90;;;;;;5123342;28;19920;-69
2022/03/19 14:16:08;;;;;;;;;;;4.30;99.90;;;;;;5103447;28;19920;-70
2022/03/19 14:18:36;;;;;;;;;;;4.40;99.90;;;;;;5104632;28;19927;-69
2022/03/19 14:21:04;;;;;;;;;;;4.50;99.90;;;;;;5086019;28;19987;-69
2022/03/19 14:23:31;;;;;;;;;;;4.60;99.90;;;;;;5103124;28;19955;-68
2022/03/19 14:25:58;;;;;;;;;;;4.60;99.90;;;;;;5101804;28;19929;-69
2022/03/19 14:31:30;;;;;;;;;;;4.70;99.90;;;;;;5104255;28;19975;-68
2022/03/19 14:33:57;;;;;;;;;;;4.80;99.90;;;;;;5104038;28;19943;-68
2022/03/19 14:36:26;;;;;;;;;;;4.90;99.90;;;;;;5103416;28;19920;-68
2022/03/19 14:38:54;;;;;;;;;;;4.90;99.90;;;;;;5104010;28;19958;-68
2022/03/19 14:41:23;;;;;;;;;;;5.00;99.90;;;;;;5104131;28;19928;-68
2022/03/19 14:43:50;;;;;;;;;;;4.90;99.90;;;;;;5107898;28;19920;-68
2022/03/19 14:46:18;;;;;;;;;;;5.10;99.90;;;;;;5107470;28;19987;-69
2022/03/19 14:48:46;;;;;;;;;;;5.30;99.90;;;;;;5107812;28;19920;-68
2022/03/19 14:51:13;;;;;;;;;;;5.50;99.90;;;;;;5107552;28;20211;-68
2022/03/19 14:53:40;;;;;;;;;;;5.60;99.90;;;;;;5132449;22;19924;-71
2022/03/19 14:56:08;;;;;;;;;;;5.70;99.90;;;;;;5108853;28;19927;-71